Terminal Aerodrome Forecast
Issued by NWS

Home | Current Version | Previous Version | Text Only | Print | Product List | Glossary On
Versions: 1 2 3 4 5 6 7 8 9 10 11 12 13 14 15 16 17 18 19
000
FTUS44 KCRP 190100 AAA
TAFALI
TAF AMD
KALI 190110Z 1901/1924 06006KT 5SM BR OVC030
      TEMPO 1902/1906 2SM -SHRA BR BKN012
     FM190600 18005KT 5SM BR VCSH BKN007 OVC012 PROB30 1910/1914 2SM
      -TSRA BR BKN012CB
     FM191400 33007KT 5SM BR VCTS SCT007 BKN017CB
     FM191800 25012KT P6SM BKN035=

USA.gov is the U.S. government's official web portal to all federal, state and local government web resources and services.